createdAt,value
2023-04-09T06:43:15.604Z,34.20
2023-04-09T06:43:26.881Z,35.50
2023-04-09T06:43:36.803Z,36.20
2023-04-09T06:43:46.892Z,36.50
2023-04-09T06:43:56.915Z,40.80
2023-04-09T06:44:07.073Z,44.50
2023-04-09T06:44:17.110Z,59.00
2023-04-09T06:44:27.201Z,59.10
2023-04-09T06:44:37.504Z,63.40
2023-04-09T06:44:47.498Z,62.90
2023-04-09T06:44:57.630Z,62.10
2023-04-09T06:45:07.891Z,61.70
2023-04-09T06:45:17.830Z,49.10
2023-04-09T06:45:27.945Z,49.70
2023-04-09T06:45:40.411Z,47.10
2023-04-09T06:45:48.309Z,48.60
2023-04-09T06:45:58.372Z,44.20
2023-04-09T06:46:08.502Z,43.00
2023-04-09T06:46:18.712Z,43.90
2023-04-09T06:46:28.760Z,43.70
2023-04-09T06:46:38.938Z,44.80
2023-04-09T06:46:49.156Z,45.00
2023-04-09T06:46:59.143Z,44.80
2023-04-09T06:47:09.241Z,45.90
2023-04-09T06:47:19.269Z,43.50
2023-04-09T06:47:29.555Z,43.20
2023-04-09T06:47:39.684Z,40.60
2023-04-09T06:47:49.762Z,41.90
2023-04-09T06:47:59.885Z,43.80
2023-04-09T06:48:09.927Z,41.50
2023-04-09T06:48:20.166Z,41.80
2023-04-09T06:48:30.237Z,42.20
2023-04-09T06:48:40.383Z,42.60
2023-04-09T06:48:50.429Z,44.20
2023-04-09T06:49:00.623Z,48.30
2023-04-09T06:49:10.691Z,53.00
2023-04-09T06:49:20.868Z,53.60
2023-04-09T06:49:30.988Z,55.10
2023-04-09T06:49:41.176Z,55.40
2023-04-09T06:49:51.209Z,52.40
2023-04-09T06:50:01.337Z,47.50
2023-04-09T06:50:11.467Z,52.50
2023-04-09T06:50:21.674Z,52.00
2023-04-09T06:50:31.704Z,50.00
2023-04-09T06:50:41.998Z,52.10
2023-04-09T06:50:52.046Z,51.40
2023-04-09T06:51:02.202Z,52.20
2023-04-09T06:51:12.317Z,43.10
2023-04-09T06:51:22.471Z,42.70
2023-04-09T06:51:32.507Z,45.70
2023-04-09T06:51:42.719Z,47.70
2023-04-09T06:51:52.899Z,46.70
2023-04-09T06:52:03.064Z,45.70
2023-04-09T06:52:13.069Z,46.00
2023-04-09T06:52:23.288Z,44.80
2023-04-09T06:52:33.440Z,39.60
2023-04-09T06:52:43.515Z,35.80
2023-04-09T06:52:53.674Z,35.90
2023-04-09T06:53:04.527Z,37.70
2023-04-09T06:53:13.921Z,38.10
2023-04-09T06:53:24.072Z,38.40
2023-04-09T06:53:34.220Z,38.70
2023-04-09T06:53:44.377Z,40.90
2023-04-09T06:53:54.709Z,40.50
2023-04-09T06:54:04.638Z,37.50
2023-04-09T06:54:14.868Z,37.70
2023-04-09T06:54:24.952Z,38.70
2023-04-09T06:54:34.924Z,39.10
2023-04-09T06:54:45.221Z,37.20
2023-04-09T06:54:55.382Z,37.30
2023-04-09T06:55:05.475Z,40.10
2023-04-09T06:55:15.513Z,38.60
2023-04-09T06:55:25.674Z,37.00
2023-04-09T06:55:36.449Z,38.30
2023-04-09T06:55:45.952Z,38.00
2023-04-09T06:55:57.005Z,38.20
2023-04-09T06:56:06.130Z,35.70
2023-04-09T06:56:16.231Z,36.90
2023-04-09T06:56:26.392Z,39.30
2023-04-09T06:56:46.721Z,40.70
2023-04-09T06:56:56.816Z,40.40
2023-04-09T06:57:06.971Z,40.90
2023-04-09T06:57:16.976Z,39.90
2023-04-09T06:57:27.167Z,39.50
2023-04-09T06:57:37.278Z,39.80
2023-04-09T06:57:47.609Z,39.40
2023-04-09T06:57:57.664Z,39.60
2023-04-09T06:58:07.857Z,42.30
2023-04-09T06:58:17.739Z,43.80
2023-04-09T06:58:27.970Z,43.70
2023-04-09T06:58:38.092Z,43.90
2023-04-09T06:58:48.219Z,42.70
2023-04-09T06:58:58.501Z,43.40
2023-04-09T06:59:08.516Z,46.10
2023-04-09T06:59:18.640Z,45.20
2023-04-09T06:59:28.908Z,41.90
2023-04-09T06:59:38.874Z,42.30
2023-04-09T06:59:49.051Z,42.40
2023-04-09T06:59:59.284Z,42.00
2023-04-09T07:00:09.372Z,35.90
2023-04-09T07:00:19.423Z,36.40
2023-04-09T07:00:29.590Z,39.20
2023-04-09T07:00:39.710Z,39.80
2023-04-09T07:00:49.805Z,39.90
2023-04-09T07:00:59.929Z,40.20
2023-04-09T07:01:10.170Z,42.00
2023-04-09T07:01:21.145Z,41.10
2023-04-09T07:01:30.530Z,41.40
2023-04-09T07:01:40.649Z,39.40
2023-04-09T07:01:51.386Z,41.60
2023-04-09T07:02:00.576Z,46.50
2023-04-09T07:02:10.702Z,91.00
2023-04-09T07:02:31.022Z,61.40
2023-04-09T07:02:40.959Z,60.10
2023-04-09T07:02:51.145Z,58.00
2023-04-09T07:03:01.257Z,49.60
2023-04-09T07:03:11.404Z,46.90
2023-04-09T07:03:21.430Z,50.20
2023-04-09T07:03:31.957Z,54.80
2023-04-09T07:03:41.715Z,53.30
2023-04-09T07:03:52.032Z,53.00
2023-04-09T07:04:02.484Z,50.60
2023-04-09T07:04:12.114Z,48.60
2023-04-09T07:04:22.122Z,49.50
2023-04-09T07:04:32.403Z,47.90
2023-04-09T07:04:42.420Z,47.10
2023-04-09T07:04:52.582Z,45.00
2023-04-09T07:05:02.582Z,43.30
2023-04-09T07:05:12.994Z,42.80
2023-04-09T07:05:22.867Z,42.00
2023-04-09T07:05:33.048Z,39.70
2023-04-09T07:05:43.156Z,39.40
2023-04-09T07:05:53.851Z,38.90
2023-04-09T07:06:04.270Z,39.10
2023-04-09T07:06:13.515Z,38.80
2023-04-09T07:06:23.609Z,37.50
2023-04-09T07:06:33.822Z,37.70
2023-04-09T07:06:43.857Z,38.40
2023-04-09T07:06:54.027Z,38.00
2023-04-09T07:07:14.238Z,40.30
2023-04-09T07:07:25.625Z,39.40
2023-04-09T07:07:34.536Z,39.80
2023-04-09T07:07:44.564Z,39.30
2023-04-09T07:07:54.640Z,40.60
2023-04-09T07:08:05.133Z,39.00
2023-04-09T07:08:14.957Z,38.60
2023-04-09T07:08:25.070Z,39.30
2023-04-09T07:08:35.276Z,38.90
2023-04-09T07:08:45.290Z,37.80
2023-04-09T07:08:55.647Z,38.50
2023-04-09T07:09:05.502Z,40.50
2023-04-09T07:09:15.635Z,39.80
2023-04-09T07:09:25.717Z,41.10
2023-04-09T07:09:35.888Z,42.70
2023-04-09T07:09:46.127Z,42.80
2023-04-09T07:09:56.331Z,41.40
2023-04-09T07:10:06.339Z,41.50
2023-04-09T07:10:16.414Z,43.10
2023-04-09T07:10:26.617Z,43.40
2023-04-09T07:10:36.780Z,42.50
2023-04-09T07:10:46.889Z,42.40
2023-04-09T07:10:57.041Z,44.50
2023-04-09T07:11:07.243Z,45.70
2023-04-09T07:11:17.224Z,44.20
2023-04-09T07:11:27.455Z,43.70
2023-04-09T07:11:37.512Z,45.60
2023-04-09T07:11:47.665Z,45.20
2023-04-09T07:11:57.858Z,44.20
2023-04-09T07:12:07.913Z,41.80
2023-04-09T07:12:18.045Z,42.50
2023-04-09T07:12:28.155Z,44.20
2023-04-09T07:16:57.171Z,74.20
2023-04-09T07:17:08.210Z,69.60
2023-04-09T07:17:18.029Z,76.50
2023-04-09T07:17:28.375Z,79.30
2023-04-09T07:17:38.445Z,82.50
2023-04-09T07:17:48.722Z,80.50
2023-04-09T07:17:58.636Z,89.20
2023-04-09T07:18:09.308Z,84.60
2023-04-09T07:18:19.054Z,77.90
2023-04-09T07:18:29.207Z,67.90
2023-04-09T07:18:39.276Z,53.30
2023-04-09T07:18:49.364Z,52.80
2023-04-09T07:18:59.595Z,50.30
2023-04-09T07:19:09.959Z,49.90
2023-04-09T07:19:19.749Z,51.90
2023-04-09T07:19:29.850Z,50.90
2023-04-09T07:19:39.987Z,51.10
2023-04-09T07:19:50.087Z,48.10
2023-04-09T07:20:00.176Z,47.50
2023-04-09T07:20:10.431Z,48.00
2023-04-09T07:20:20.591Z,46.40
2023-04-09T07:20:30.725Z,46.50
2023-04-09T07:20:40.746Z,45.20
2023-04-09T07:20:50.924Z,45.70
2023-04-09T07:21:00.984Z,46.30
2023-04-09T07:21:11.131Z,44.70
2023-04-09T07:21:21.316Z,46.90
2023-04-09T07:21:31.510Z,48.20
2023-04-09T07:21:41.481Z,51.70
2023-04-09T07:21:51.623Z,51.10
2023-04-09T07:22:01.755Z,49.60
2023-04-09T07:22:11.935Z,51.20
2023-04-09T07:22:22.080Z,52.00
2023-04-09T07:22:32.270Z,53.80
2023-04-09T07:22:42.349Z,54.10
2023-04-09T07:22:52.504Z,55.90
2023-04-09T07:23:02.512Z,57.70
2023-04-09T07:23:12.756Z,58.80
2023-04-09T07:23:22.853Z,60.70
2023-04-09T07:23:32.921Z,57.50
2023-04-09T07:23:43.082Z,57.70
2023-04-09T07:23:53.412Z,57.00
2023-04-09T07:24:03.221Z,61.30
2023-04-09T07:24:13.361Z,63.10
2023-04-09T07:24:23.482Z,62.50
2023-04-09T07:24:33.622Z,63.40
2023-04-09T07:24:43.748Z,61.60
2023-04-09T07:24:54.063Z,63.20
2023-04-09T07:25:03.950Z,58.00
2023-04-09T07:25:14.154Z,56.30
2023-04-09T07:25:24.841Z,51.80
2023-04-09T07:25:34.416Z,51.20
2023-04-09T07:25:44.581Z,49.80
2023-04-09T07:25:55.284Z,48.30
2023-04-09T07:26:04.823Z,47.90
2023-04-09T07:26:14.864Z,47.10
2023-04-09T07:26:25.004Z,47.20
2023-04-09T07:26:35.193Z,48.90
2023-04-09T07:26:45.353Z,49.50
2023-04-09T07:26:55.577Z,50.40
2023-04-09T07:27:05.615Z,48.80
2023-04-09T07:27:15.640Z,48.40
2023-04-09T07:27:25.843Z,48.00
2023-04-09T07:27:35.899Z,50.00
2023-04-09T07:27:46.046Z,49.80
2023-04-09T07:27:56.268Z,48.80
2023-04-09T07:28:06.298Z,48.90
2023-04-09T07:28:16.497Z,50.20
2023-04-09T07:28:26.687Z,50.40
2023-04-09T07:28:36.754Z,50.60
2023-04-09T07:28:46.859Z,51.50
2023-04-09T07:28:57.055Z,53.40
2023-04-09T07:29:07.195Z,53.60
2023-04-09T07:29:17.200Z,52.00
2023-04-09T07:29:27.314Z,55.20
2023-04-09T07:29:37.589Z,51.70
2023-04-09T07:29:47.585Z,52.20
2023-04-09T07:29:57.767Z,51.40
2023-04-09T07:30:07.925Z,53.10
2023-04-09T07:30:17.970Z,53.60
2023-04-09T07:30:28.113Z,55.20
2023-04-09T07:30:38.244Z,60.80
2023-04-09T07:30:49.338Z,62.90
2023-04-09T07:30:58.427Z,74.70
2023-04-09T07:31:08.617Z,86.10
2023-04-09T07:31:18.786Z,87.80
2023-04-09T07:31:28.933Z,82.80
2023-04-09T07:31:39.188Z,85.30
2023-04-09T07:31:59.462Z,79.70
2023-04-09T07:32:09.467Z,77.50
2023-04-09T07:32:19.594Z,76.90
2023-04-09T07:32:29.799Z,90.90
2023-04-09T07:32:39.878Z,87.40
2023-04-09T07:32:50.000Z,86.00
2023-04-09T07:33:00.333Z,94.00
2023-04-09T07:33:10.163Z,96.00
2023-04-09T07:33:20.295Z,98.50
2023-04-09T07:33:30.439Z,107.30
2023-04-09T07:33:40.548Z,113.10
2023-04-09T07:33:50.786Z,109.10
2023-04-09T07:34:00.776Z,95.80
2023-04-09T07:34:10.804Z,96.00
2023-04-09T07:34:21.007Z,90.80
2023-04-09T07:34:31.086Z,81.60
2023-04-09T07:34:41.252Z,77.50
2023-04-09T07:34:51.346Z,80.90
2023-04-09T07:35:01.557Z,79.40
2023-04-09T07:35:11.695Z,74.40
2023-04-09T07:35:21.783Z,76.00
2023-04-09T07:35:31.781Z,70.30
2023-04-09T07:35:42.087Z,66.70
2023-04-09T07:35:52.915Z,65.50
2023-04-09T07:36:02.264Z,69.30
2023-04-09T07:36:12.349Z,73.30
2023-04-09T07:36:22.350Z,77.70
2023-04-09T07:36:32.581Z,73.60
2023-04-09T07:36:42.737Z,72.50
2023-04-09T07:36:52.606Z,71.40
2023-04-09T07:37:02.818Z,73.00
2023-04-09T07:37:12.946Z,66.20
2023-04-09T07:37:23.125Z,62.90
2023-04-09T07:37:33.128Z,61.60
2023-04-09T07:37:43.234Z,65.60
2023-04-09T07:37:53.251Z,66.50
2023-04-09T07:38:03.475Z,59.50
2023-04-09T07:38:13.540Z,56.50
2023-04-09T07:38:23.768Z,52.50
2023-04-09T07:38:33.878Z,53.30
2023-04-09T07:38:44.074Z,61.00
2023-04-09T07:38:54.253Z,59.80
2023-04-09T07:39:04.265Z,61.00
2023-04-09T07:39:14.260Z,67.50
2023-04-09T07:39:24.426Z,65.80
2023-04-09T07:39:34.493Z,68.50
2023-04-09T07:39:44.724Z,55.00
2023-04-09T07:39:54.845Z,54.50
2023-04-09T07:40:04.944Z,60.70
2023-04-09T07:40:15.102Z,57.80
2023-04-09T07:40:25.208Z,60.00
2023-04-09T07:40:35.355Z,59.90
2023-04-09T07:40:45.406Z,60.90
2023-04-09T07:40:55.484Z,66.30
2023-04-09T07:41:05.723Z,58.80
2023-04-09T07:41:16.762Z,59.70
2023-04-09T07:41:25.949Z,61.30
2023-04-09T07:41:36.004Z,64.30
2023-04-09T07:41:46.287Z,64.60
2023-04-09T07:41:56.443Z,59.70
2023-04-09T07:42:06.476Z,59.80
2023-04-09T07:42:26.741Z,59.80
2023-04-09T07:42:36.873Z,56.00
2023-04-09T07:42:47.066Z,54.30
2023-04-09T07:42:57.180Z,53.30
2023-04-09T07:43:07.503Z,52.70
2023-04-09T07:43:17.367Z,54.00
2023-04-09T07:43:27.476Z,50.80
2023-04-09T07:43:37.607Z,47.30
2023-04-09T07:43:47.831Z,48.50
2023-04-09T07:43:57.984Z,49.10
2023-04-09T07:44:08.195Z,52.50
2023-04-09T07:44:19.707Z,49.10
2023-04-09T07:44:28.404Z,50.60
2023-04-09T07:44:38.398Z,53.20
2023-04-09T07:44:48.539Z,50.40
2023-04-09T07:44:58.660Z,51.40
2023-04-09T07:45:08.910Z,48.50
2023-04-09T07:45:29.030Z,47.30
2023-04-09T07:45:39.071Z,45.00
2023-04-09T07:45:49.279Z,44.00
2023-04-09T07:46:00.220Z,42.00
2023-04-09T07:46:09.547Z,41.00
2023-04-09T07:46:19.728Z,41.00
2023-04-09T07:46:29.847Z,40.20
2023-04-09T07:46:39.904Z,42.20
2023-04-09T07:46:50.175Z,43.80
2023-04-09T07:47:10.234Z,46.00
2023-04-09T07:47:20.822Z,45.80
2023-04-09T07:47:30.544Z,45.40
2023-04-09T07:47:40.693Z,44.90
2023-04-09T07:47:50.774Z,43.90
2023-04-09T07:48:00.903Z,45.60
2023-04-09T07:48:10.904Z,44.50
2023-04-09T07:48:21.151Z,45.50
2023-04-09T07:48:31.254Z,46.80
2023-04-09T07:48:41.238Z,48.50
2023-04-09T07:48:51.696Z,50.20
2023-04-09T07:49:01.465Z,48.60
2023-04-09T07:49:11.597Z,55.10
2023-04-09T07:49:21.674Z,55.30
2023-04-09T07:49:31.810Z,62.10
2023-04-09T07:49:42.016Z,60.90
2023-04-09T07:49:52.036Z,61.10
2023-04-09T07:50:02.347Z,65.00
2023-04-09T07:50:12.298Z,61.90
2023-04-09T07:50:22.561Z,61.10
2023-04-09T07:50:32.600Z,53.40
2023-04-09T07:50:42.673Z,54.20
2023-04-09T07:50:52.849Z,53.10
2023-04-09T07:51:03.074Z,59.20
2023-04-09T07:51:13.173Z,59.70
2023-04-09T07:51:23.297Z,60.40
2023-04-09T07:51:33.367Z,66.30
2023-04-09T07:51:43.573Z,73.10
2023-04-09T07:51:53.608Z,76.50
2023-04-09T07:52:03.804Z,65.60
2023-04-09T07:52:13.776Z,63.80
2023-04-09T07:52:24.080Z,63.30
2023-04-09T07:52:34.074Z,59.00
2023-04-09T07:52:44.337Z,51.10
2023-04-09T07:52:54.335Z,46.80
2023-04-09T07:53:04.439Z,53.20
2023-04-09T07:53:14.525Z,51.80
2023-04-09T07:53:24.865Z,51.80
2023-04-09T07:53:34.915Z,70.70
2023-04-09T07:53:45.122Z,88.70
